<?xml version="1.0" encoding="UTF-8"?>
<gpx version="1.0" creator="Trackator" xmlns:xsi="http://www.w3.org/2001/XMLSchema-instance" xmlns="http://www.topografix.com/GPX/1/0" xmlns:topografix="http://www.topografix.com/GPX/Private/TopoGrafix/0/1" xsi:schemaLocation="http://www.topografix.com/GPX/1/0 http://www.topografix.com/GPX/1/0/gpx.xsd http://www.topografix.com/GPX/Private/TopoGrafix/0/1 http://www.topografix.com/GPX/Private/TopoGrafix/0/1/topografix.xsd">
<metadata>
<link href="http://www.trackator.com">
<text>Trackator</text>
</link>
</metadata>
<time>2016-06-13T14:47:38Z</time>
<trk>
<name>Track: </name>
<desc></desc>
<trkseg>
<trkpt lat="53.2998823" lon="18.4238668">
<ele>132</ele>
<time>2016-06-13T14:47:38Z</time>
</trkpt>
<trkpt lat="53.3000187" lon="18.4239558">
<ele>88</ele>
<time>2016-06-13T14:47:42Z</time>
</trkpt>
<trkpt lat="53.3000187" lon="18.4239558">
<ele>88</ele>
<time>2016-06-13T14:47:44Z</time>
</trkpt>
<trkpt lat="53.3000187" lon="18.4239558">
<ele>88</ele>
<time>2016-06-13T14:47:46Z</time>
</trkpt>
<trkpt lat="53.3000187" lon="18.4239558">
<ele>88</ele>
<time>2016-06-13T14:47:48Z</time>
</trkpt>
<trkpt lat="53.3000187" lon="18.4239558">
<ele>88</ele>
<time>2016-06-13T14:47:50Z</time>
</trkpt>
<trkpt lat="53.3000187" lon="18.4239558">
<ele>88</ele>
<time>2016-06-13T14:47:52Z</time>
</trkpt>
<trkpt lat="53.3000187" lon="18.4239558">
<ele>88</ele>
<time>2016-06-13T14:47:54Z</time>
</trkpt>
<trkpt lat="53.3000187" lon="18.4239558">
<ele>88</ele>
<time>2016-06-13T14:47:56Z</time>
</trkpt>
<trkpt lat="53.3000187" lon="18.4239558">
<ele>88</ele>
<time>2016-06-13T14:47:58Z</time>
</trkpt>
<trkpt lat="53.3000187" lon="18.4239558">
<ele>88</ele>
<time>2016-06-13T14:48:00Z</time>
</trkpt>
<trkpt lat="53.3000187" lon="18.4239558">
<ele>88</ele>
<time>2016-06-13T14:48:02Z</time>
</trkpt>
<trkpt lat="53.3000187" lon="18.4239558">
<ele>88</ele>
<time>2016-06-13T14:48:04Z</time>
</trkpt>
<trkpt lat="53.3000187" lon="18.4239558">
<ele>88</ele>
<time>2016-06-13T14:48:06Z</time>
</trkpt>
<trkpt lat="53.3000187" lon="18.4239558">
<ele>88</ele>
<time>2016-06-13T14:48:08Z</time>
</trkpt>
<trkpt lat="53.3000187" lon="18.4239558">
<ele>88</ele>
<time>2016-06-13T14:48:10Z</time>
</trkpt>
<trkpt lat="53.3000187" lon="18.4239558">
<ele>88</ele>
<time>2016-06-13T14:48:12Z</time>
</trkpt>
<trkpt lat="53.3000187" lon="18.4239558">
<ele>88</ele>
<time>2016-06-13T14:48:14Z</time>
</trkpt>
<trkpt lat="53.3000187" lon="18.4239558">
<ele>88</ele>
<time>2016-06-13T14:48:16Z</time>
</trkpt>
<trkpt lat="53.3000187" lon="18.4239558">
<ele>88</ele>
<time>2016-06-13T14:48:18Z</time>
</trkpt>
<trkpt lat="53.3000187" lon="18.4239558">
<ele>88</ele>
<time>2016-06-13T14:48:20Z</time>
</trkpt>
<trkpt lat="53.3000187" lon="18.4239558">
<ele>88</ele>
<time>2016-06-13T14:48:22Z</time>
</trkpt>
<trkpt lat="53.3000187" lon="18.4239558">
<ele>88</ele>
<time>2016-06-13T14:48:24Z</time>
</trkpt>
<trkpt lat="53.3000187" lon="18.4239558">
<ele>88</ele>
<time>2016-06-13T14:48:26Z</time>
</trkpt>
<trkpt lat="53.3000187" lon="18.4239558">
<ele>88</ele>
<time>2016-06-13T14:48:28Z</time>
</trkpt>
<trkpt lat="53.3000187" lon="18.4239558">
<ele>88</ele>
<time>2016-06-13T14:48:30Z</time>
</trkpt>
<trkpt lat="53.3000187" lon="18.4239558">
<ele>88</ele>
<time>2016-06-13T14:48:32Z</time>
</trkpt>
<trkpt lat="53.3000187" lon="18.4239558">
<ele>88</ele>
<time>2016-06-13T14:48:34Z</time>
</trkpt>
<trkpt lat="53.3000187" lon="18.4239558">
<ele>88</ele>
<time>2016-06-13T14:48:36Z</time>
</trkpt>
<trkpt lat="53.3000187" lon="18.4239558">
<ele>88</ele>
<time>2016-06-13T14:48:38Z</time>
</trkpt>
<trkpt lat="53.3000187" lon="18.4239558">
<ele>88</ele>
<time>2016-06-13T14:48:40Z</time>
</trkpt>
<trkpt lat="53.3000187" lon="18.4239558">
<ele>88</ele>
<time>2016-06-13T14:48:42Z</time>
</trkpt>
<trkpt lat="53.3000187" lon="18.4239558">
<ele>88</ele>
<time>2016-06-13T14:48:44Z</time>
</trkpt>
<trkpt lat="53.3000187" lon="18.4239558">
<ele>88</ele>
<time>2016-06-13T14:48:46Z</time>
</trkpt>
<trkpt lat="53.3000187" lon="18.4239558">
<ele>88</ele>
<time>2016-06-13T14:48:48Z</time>
</trkpt>
<trkpt lat="53.3000187" lon="18.4239558">
<ele>88</ele>
<time>2016-06-13T14:48:50Z</time>
</trkpt>
<trkpt lat="53.3000187" lon="18.4239558">
<ele>88</ele>
<time>2016-06-13T14:48:52Z</time>
</trkpt>
<trkpt lat="53.3000187" lon="18.4239558">
<ele>88</ele>
<time>2016-06-13T14:48:54Z</time>
</trkpt>
<trkpt lat="53.3000187" lon="18.4239558">
<ele>88</ele>
<time>2016-06-13T14:48:56Z</time>
</trkpt>
<trkpt lat="53.3000187" lon="18.4239558">
<ele>88</ele>
<time>2016-06-13T14:48:58Z</time>
</trkpt>
<trkpt lat="53.3000187" lon="18.4239558">
<ele>88</ele>
<time>2016-06-13T14:49:00Z</time>
</trkpt>
<trkpt lat="53.3000187" lon="18.4239558">
<ele>88</ele>
<time>2016-06-13T14:49:02Z</time>
</trkpt>
<trkpt lat="53.3000187" lon="18.4239558">
<ele>88</ele>
<time>2016-06-13T14:49:04Z</time>
</trkpt>
<trkpt lat="53.3000187" lon="18.4239558">
<ele>88</ele>
<time>2016-06-13T14:49:06Z</time>
</trkpt>
<trkpt lat="53.3000187" lon="18.4239558">
<ele>88</ele>
<time>2016-06-13T14:49:08Z</time>
</trkpt>
<trkpt lat="53.3000187" lon="18.4239558">
<ele>88</ele>
<time>2016-06-13T14:49:10Z</time>
</trkpt>
<trkpt lat="53.3000187" lon="18.4239558">
<ele>88</ele>
<time>2016-06-13T14:49:12Z</time>
</trkpt>
<trkpt lat="53.3000187" lon="18.4239558">
<ele>88</ele>
<time>2016-06-13T14:49:14Z</time>
</trkpt>
<trkpt lat="53.3000187" lon="18.4239558">
<ele>88</ele>
<time>2016-06-13T14:49:16Z</time>
</trkpt>
<trkpt lat="53.3000187" lon="18.4239558">
<ele>88</ele>
<time>2016-06-13T14:49:18Z</time>
</trkpt>
<trkpt lat="53.3000187" lon="18.4239558">
<ele>88</ele>
<time>2016-06-13T14:49:20Z</time>
</trkpt>
<trkpt lat="53.3000187" lon="18.4239558">
<ele>88</ele>
<time>2016-06-13T14:49:22Z</time>
</trkpt>
<trkpt lat="53.3000187" lon="18.4239558">
<ele>88</ele>
<time>2016-06-13T14:49:24Z</time>
</trkpt>
<trkpt lat="53.3000187" lon="18.4239558">
<ele>88</ele>
<time>2016-06-13T14:49:26Z</time>
</trkpt>
<trkpt lat="53.3000187" lon="18.4239558">
<ele>88</ele>
<time>2016-06-13T14:49:28Z</time>
</trkpt>
<trkpt lat="53.3000187" lon="18.4239558">
<ele>88</ele>
<time>2016-06-13T14:49:30Z</time>
</trkpt>
<trkpt lat="53.3000187" lon="18.4239558">
<ele>88</ele>
<time>2016-06-13T14:49:32Z</time>
</trkpt>
<trkpt lat="53.3000187" lon="18.4239558">
<ele>88</ele>
<time>2016-06-13T14:49:34Z</time>
</trkpt>
<trkpt lat="53.3000187" lon="18.4239558">
<ele>88</ele>
<time>2016-06-13T14:49:36Z</time>
</trkpt>
<trkpt lat="53.3000187" lon="18.4239558">
<ele>88</ele>
<time>2016-06-13T14:49:38Z</time>
</trkpt>
<trkpt lat="53.3000187" lon="18.4239558">
<ele>88</ele>
<time>2016-06-13T14:49:40Z</time>
</trkpt>
<trkpt lat="53.3000187" lon="18.4239558">
<ele>88</ele>
<time>2016-06-13T14:49:42Z</time>
</trkpt>
<trkpt lat="53.3000187" lon="18.4239558">
<ele>88</ele>
<time>2016-06-13T14:49:44Z</time>
</trkpt>
<trkpt lat="53.3000187" lon="18.4239558">
<ele>88</ele>
<time>2016-06-13T14:49:46Z</time>
</trkpt>
<trkpt lat="53.3000187" lon="18.4239558">
<ele>88</ele>
<time>2016-06-13T14:49:48Z</time>
</trkpt>
<trkpt lat="53.3000187" lon="18.4239558">
<ele>88</ele>
<time>2016-06-13T14:49:50Z</time>
</trkpt>
<trkpt lat="53.3000187" lon="18.4239558">
<ele>88</ele>
<time>2016-06-13T14:49:52Z</time>
</trkpt>
<trkpt lat="53.3000187" lon="18.4239558">
<ele>88</ele>
<time>2016-06-13T14:49:56Z</time>
</trkpt>
<trkpt lat="53.3000187" lon="18.4239558">
<ele>88</ele>
<time>2016-06-13T14:49:58Z</time>
</trkpt>
<trkpt lat="53.3000187" lon="18.4239558">
<ele>88</ele>
<time>2016-06-13T14:50:00Z</time>
</trkpt>
<trkpt lat="53.3000187" lon="18.4239558">
<ele>88</ele>
<time>2016-06-13T14:50:02Z</time>
</trkpt>
<trkpt lat="53.3000187" lon="18.4239558">
<ele>88</ele>
<time>2016-06-13T14:50:04Z</time>
</trkpt>
<trkpt lat="53.3000187" lon="18.4239558">
<ele>88</ele>
<time>2016-06-13T14:50:06Z</time>
</trkpt>
<trkpt lat="53.3000187" lon="18.4239558">
<ele>88</ele>
<time>2016-06-13T14:50:08Z</time>
</trkpt>
<trkpt lat="53.3000187" lon="18.4239558">
<ele>88</ele>
<time>2016-06-13T14:50:10Z</time>
</trkpt>
<trkpt lat="53.3000187" lon="18.4239558">
<ele>88</ele>
<time>2016-06-13T14:50:12Z</time>
</trkpt>
<trkpt lat="53.3000187" lon="18.4239558">
<ele>88</ele>
<time>2016-06-13T14:50:14Z</time>
</trkpt>
<trkpt lat="53.3000187" lon="18.4239558">
<ele>88</ele>
<time>2016-06-13T14:50:16Z</time>
</trkpt>
<trkpt lat="53.3000187" lon="18.4239558">
<ele>88</ele>
<time>2016-06-13T14:50:18Z</time>
</trkpt>
<trkpt lat="53.3000187" lon="18.4239558">
<ele>88</ele>
<time>2016-06-13T14:50:20Z</time>
</trkpt>
<trkpt lat="53.3000187" lon="18.4239558">
<ele>88</ele>
<time>2016-06-13T14:50:22Z</time>
</trkpt>
<trkpt lat="53.3000187" lon="18.4239558">
<ele>88</ele>
<time>2016-06-13T14:50:24Z</time>
</trkpt>
<trkpt lat="53.3000187" lon="18.4239558">
<ele>88</ele>
<time>2016-06-13T14:50:26Z</time>
</trkpt>
<trkpt lat="53.3000187" lon="18.4239558">
<ele>88</ele>
<time>2016-06-13T14:50:28Z</time>
</trkpt>
<trkpt lat="53.3000187" lon="18.4239558">
<ele>88</ele>
<time>2016-06-13T14:50:30Z</time>
</trkpt>
<trkpt lat="53.3000187" lon="18.4239558">
<ele>88</ele>
<time>2016-06-13T14:50:32Z</time>
</trkpt>
<trkpt lat="53.3000187" lon="18.4239558">
<ele>88</ele>
<time>2016-06-13T14:50:34Z</time>
</trkpt>
<trkpt lat="53.3000187" lon="18.4239558">
<ele>88</ele>
<time>2016-06-13T14:50:36Z</time>
</trkpt>
<trkpt lat="53.3000187" lon="18.4239558">
<ele>88</ele>
<time>2016-06-13T14:50:38Z</time>
</trkpt>
<trkpt lat="53.3000187" lon="18.4239558">
<ele>88</ele>
<time>2016-06-13T14:50:40Z</time>
</trkpt>
<trkpt lat="53.3000187" lon="18.4239558">
<ele>88</ele>
<time>2016-06-13T14:50:42Z</time>
</trkpt>
<trkpt lat="53.3000187" lon="18.4239558">
<ele>88</ele>
<time>2016-06-13T14:50:44Z</time>
</trkpt>
<trkpt lat="53.3000187" lon="18.4239558">
<ele>88</ele>
<time>2016-06-13T14:50:46Z</time>
</trkpt>
<trkpt lat="53.3000187" lon="18.4239558">
<ele>88</ele>
<time>2016-06-13T14:50:48Z</time>
</trkpt>
<trkpt lat="53.3000187" lon="18.4239558">
<ele>88</ele>
<time>2016-06-13T14:50:50Z</time>
</trkpt>
<trkpt lat="53.3000187" lon="18.4239558">
<ele>88</ele>
<time>2016-06-13T14:50:52Z</time>
</trkpt>
<trkpt lat="53.3000187" lon="18.4239558">
<ele>88</ele>
<time>2016-06-13T14:50:54Z</time>
</trkpt>
<trkpt lat="53.3000187" lon="18.4239558">
<ele>88</ele>
<time>2016-06-13T14:50:56Z</time>
</trkpt>
<trkpt lat="53.3000187" lon="18.4239558">
<ele>88</ele>
<time>2016-06-13T14:50:58Z</time>
</trkpt>
<trkpt lat="53.3000187" lon="18.4239558">
<ele>88</ele>
<time>2016-06-13T14:51:00Z</time>
</trkpt>
<trkpt lat="53.3000187" lon="18.4239558">
<ele>88</ele>
<time>2016-06-13T14:51:04Z</time>
</trkpt>
<trkpt lat="53.3000187" lon="18.4239558">
<ele>88</ele>
<time>2016-06-13T14:51:06Z</time>
</trkpt>
<trkpt lat="53.3000187" lon="18.4239558">
<ele>88</ele>
<time>2016-06-13T14:51:08Z</time>
</trkpt>
<trkpt lat="53.3000187" lon="18.4239558">
<ele>88</ele>
<time>2016-06-13T14:51:10Z</time>
</trkpt>
<trkpt lat="53.3000187" lon="18.4239558">
<ele>88</ele>
<time>2016-06-13T14:51:12Z</time>
</trkpt>
<trkpt lat="53.3000187" lon="18.4239558">
<ele>88</ele>
<time>2016-06-13T14:51:14Z</time>
</trkpt>
<trkpt lat="53.3000187" lon="18.4239558">
<ele>88</ele>
<time>2016-06-13T14:51:16Z</time>
</trkpt>
<trkpt lat="53.3000187" lon="18.4239558">
<ele>88</ele>
<time>2016-06-13T14:51:18Z</time>
</trkpt>
<trkpt lat="53.3000187" lon="18.4239558">
<ele>88</ele>
<time>2016-06-13T14:51:20Z</time>
</trkpt>
<trkpt lat="53.3000187" lon="18.4239558">
<ele>88</ele>
<time>2016-06-13T14:51:22Z</time>
</trkpt>
<trkpt lat="53.3000187" lon="18.4239558">
<ele>88</ele>
<time>2016-06-13T14:51:24Z</time>
</trkpt>
<trkpt lat="53.3000187" lon="18.4239558">
<ele>88</ele>
<time>2016-06-13T14:51:26Z</time>
</trkpt>
<trkpt lat="53.3000187" lon="18.4239558">
<ele>88</ele>
<time>2016-06-13T14:51:28Z</time>
</trkpt>
<trkpt lat="53.3000187" lon="18.4239558">
<ele>88</ele>
<time>2016-06-13T14:51:30Z</time>
</trkpt>
<trkpt lat="53.3000187" lon="18.4239558">
<ele>88</ele>
<time>2016-06-13T14:51:42Z</time>
</trkpt>
<trkpt lat="53.3000187" lon="18.4239558">
<ele>88</ele>
<time>2016-06-13T14:51:44Z</time>
</trkpt>
<trkpt lat="53.3000187" lon="18.4239558">
<ele>88</ele>
<time>2016-06-13T14:51:46Z</time>
</trkpt>
<trkpt lat="53.3000187" lon="18.4239558">
<ele>88</ele>
<time>2016-06-13T14:51:48Z</time>
</trkpt>
<trkpt lat="53.3000187" lon="18.4239558">
<ele>88</ele>
<time>2016-06-13T14:51:50Z</time>
</trkpt>
<trkpt lat="53.2999890" lon="18.4239780">
<ele>89</ele>
<time>2016-06-13T14:51:52Z</time>
</trkpt>
<trkpt lat="53.2999515" lon="18.4239963">
<ele>89</ele>
<time>2016-06-13T14:51:54Z</time>
</trkpt>
<trkpt lat="53.2999402" lon="18.4240018">
<ele>89</ele>
<time>2016-06-13T14:51:56Z</time>
</trkpt>
<trkpt lat="53.2999402" lon="18.4240018">
<ele>89</ele>
<time>2016-06-13T14:52:18Z</time>
</trkpt>
<trkpt lat="53.2999402" lon="18.4240018">
<ele>89</ele>
<time>2016-06-13T14:52:20Z</time>
</trkpt>
<trkpt lat="53.2999402" lon="18.4240018">
<ele>89</ele>
<time>2016-06-13T14:52:34Z</time>
</trkpt>
<trkpt lat="53.2999402" lon="18.4240018">
<ele>89</ele>
<time>2016-06-13T14:52:36Z</time>
</trkpt>
<trkpt lat="53.2999402" lon="18.4240018">
<ele>89</ele>
<time>2016-06-13T14:52:38Z</time>
</trkpt>
<trkpt lat="53.2999402" lon="18.4240018">
<ele>89</ele>
<time>2016-06-13T14:52:40Z</time>
</trkpt>
<trkpt lat="53.2999358" lon="18.4239996">
<ele>90</ele>
<time>2016-06-13T14:52:42Z</time>
</trkpt>
<trkpt lat="53.2999367" lon="18.4239864">
<ele>91</ele>
<time>2016-06-13T14:52:44Z</time>
</trkpt>
<trkpt lat="53.2999291" lon="18.4239587">
<ele>92</ele>
<time>2016-06-13T14:52:46Z</time>
</trkpt>
<trkpt lat="53.2999155" lon="18.4239595">
<ele>93</ele>
<time>2016-06-13T14:52:48Z</time>
</trkpt>
<trkpt lat="53.2999155" lon="18.4239595">
<ele>93</ele>
<time>2016-06-13T14:52:50Z</time>
</trkpt>
<trkpt lat="53.2999155" lon="18.4239595">
<ele>93</ele>
<time>2016-06-13T14:52:52Z</time>
</trkpt>
<trkpt lat="53.2999155" lon="18.4239595">
<ele>93</ele>
<time>2016-06-13T14:52:54Z</time>
</trkpt>
<trkpt lat="53.2999155" lon="18.4239595">
<ele>93</ele>
<time>2016-06-13T14:52:56Z</time>
</trkpt>
<trkpt lat="53.2999155" lon="18.4239595">
<ele>93</ele>
<time>2016-06-13T14:53:00Z</time>
</trkpt>
<trkpt lat="53.2999155" lon="18.4239595">
<ele>93</ele>
<time>2016-06-13T14:53:02Z</time>
</trkpt>
<trkpt lat="53.2999155" lon="18.4239595">
<ele>93</ele>
<time>2016-06-13T14:53:04Z</time>
</trkpt>
<trkpt lat="53.2999155" lon="18.4239595">
<ele>93</ele>
<time>2016-06-13T14:53:06Z</time>
</trkpt>
<trkpt lat="53.2999155" lon="18.4239595">
<ele>93</ele>
<time>2016-06-13T14:53:08Z</time>
</trkpt>
<trkpt lat="53.2999155" lon="18.4239595">
<ele>93</ele>
<time>2016-06-13T14:53:10Z</time>
</trkpt>
<trkpt lat="53.2999155" lon="18.4239595">
<ele>93</ele>
<time>2016-06-13T14:53:12Z</time>
</trkpt>
<trkpt lat="53.2999155" lon="18.4239595">
<ele>93</ele>
<time>2016-06-13T14:53:14Z</time>
</trkpt>
<trkpt lat="53.2999155" lon="18.4239595">
<ele>93</ele>
<time>2016-06-13T14:53:16Z</time>
</trkpt>
<trkpt lat="53.2999155" lon="18.4239595">
<ele>93</ele>
<time>2016-06-13T14:53:18Z</time>
</trkpt>
<trkpt lat="53.2999155" lon="18.4239595">
<ele>93</ele>
<time>2016-06-13T14:53:20Z</time>
</trkpt>
<trkpt lat="53.2999155" lon="18.4239595">
<ele>93</ele>
<time>2016-06-13T14:53:22Z</time>
</trkpt>
<trkpt lat="53.2999155" lon="18.4239595">
<ele>93</ele>
<time>2016-06-13T14:53:24Z</time>
</trkpt>
<trkpt lat="53.2999155" lon="18.4239595">
<ele>93</ele>
<time>2016-06-13T14:53:26Z</time>
</trkpt>
<trkpt lat="53.2999155" lon="18.4239595">
<ele>93</ele>
<time>2016-06-13T14:53:28Z</time>
</trkpt>
<trkpt lat="53.2999155" lon="18.4239595">
<ele>93</ele>
<time>2016-06-13T14:53:30Z</time>
</trkpt>
<trkpt lat="53.2999155" lon="18.4239595">
<ele>93</ele>
<time>2016-06-13T14:53:32Z</time>
</trkpt>
<trkpt lat="53.2999155" lon="18.4239595">
<ele>93</ele>
<time>2016-06-13T14:53:34Z</time>
</trkpt>
<trkpt lat="53.2999155" lon="18.4239595">
<ele>93</ele>
<time>2016-06-13T14:53:36Z</time>
</trkpt>
<trkpt lat="53.2999155" lon="18.4239595">
<ele>93</ele>
<time>2016-06-13T14:53:38Z</time>
</trkpt>
<trkpt lat="53.2999155" lon="18.4239595">
<ele>93</ele>
<time>2016-06-13T14:53:40Z</time>
</trkpt>
<trkpt lat="53.2999155" lon="18.4239595">
<ele>93</ele>
<time>2016-06-13T14:53:42Z</time>
</trkpt>
<trkpt lat="53.2999155" lon="18.4239595">
<ele>93</ele>
<time>2016-06-13T14:53:44Z</time>
</trkpt>
<trkpt lat="53.2999155" lon="18.4239595">
<ele>93</ele>
<time>2016-06-13T14:53:46Z</time>
</trkpt>
<trkpt lat="53.2999155" lon="18.4239595">
<ele>93</ele>
<time>2016-06-13T14:53:48Z</time>
</trkpt>
<trkpt lat="53.2999155" lon="18.4239595">
<ele>93</ele>
<time>2016-06-13T14:53:50Z</time>
</trkpt>
<trkpt lat="53.2999155" lon="18.4239595">
<ele>93</ele>
<time>2016-06-13T14:53:52Z</time>
</trkpt>
<trkpt lat="53.2999155" lon="18.4239595">
<ele>93</ele>
<time>2016-06-13T14:53:54Z</time>
</trkpt>
<trkpt lat="53.2999155" lon="18.4239595">
<ele>93</ele>
<time>2016-06-13T14:53:56Z</time>
</trkpt>
<trkpt lat="53.2999155" lon="18.4239595">
<ele>93</ele>
<time>2016-06-13T14:53:58Z</time>
</trkpt>
<trkpt lat="53.2999155" lon="18.4239595">
<ele>93</ele>
<time>2016-06-13T14:54:00Z</time>
</trkpt>
<trkpt lat="53.2999155" lon="18.4239595">
<ele>93</ele>
<time>2016-06-13T14:54:02Z</time>
</trkpt>
<trkpt lat="53.2999155" lon="18.4239595">
<ele>93</ele>
<time>2016-06-13T14:54:04Z</time>
</trkpt>
<trkpt lat="53.2999155" lon="18.4239595">
<ele>93</ele>
<time>2016-06-13T14:54:06Z</time>
</trkpt>
<trkpt lat="53.2999155" lon="18.4239595">
<ele>93</ele>
<time>2016-06-13T14:54:08Z</time>
</trkpt>
<trkpt lat="53.2999155" lon="18.4239595">
<ele>93</ele>
<time>2016-06-13T14:54:10Z</time>
</trkpt>
<trkpt lat="53.2999155" lon="18.4239595">
<ele>93</ele>
<time>2016-06-13T14:54:12Z</time>
</trkpt>
<trkpt lat="53.2999155" lon="18.4239595">
<ele>93</ele>
<time>2016-06-13T14:54:14Z</time>
</trkpt>
<trkpt lat="53.2999155" lon="18.4239595">
<ele>93</ele>
<time>2016-06-13T14:54:16Z</time>
</trkpt>
<trkpt lat="53.2999155" lon="18.4239595">
<ele>93</ele>
<time>2016-06-13T14:54:18Z</time>
</trkpt>
<trkpt lat="53.2999155" lon="18.4239595">
<ele>93</ele>
<time>2016-06-13T14:54:20Z</time>
</trkpt>
<trkpt lat="53.2999155" lon="18.4239595">
<ele>93</ele>
<time>2016-06-13T14:54:22Z</time>
</trkpt>
<trkpt lat="53.2999155" lon="18.4239595">
<ele>93</ele>
<time>2016-06-13T14:54:24Z</time>
</trkpt>
<trkpt lat="53.2999155" lon="18.4239595">
<ele>93</ele>
<time>2016-06-13T14:54:26Z</time>
</trkpt>
<trkpt lat="53.2999155" lon="18.4239595">
<ele>93</ele>
<time>2016-06-13T14:54:28Z</time>
</trkpt>
<trkpt lat="53.2999155" lon="18.4239595">
<ele>93</ele>
<time>2016-06-13T14:54:30Z</time>
</trkpt>
<trkpt lat="53.2999155" lon="18.4239595">
<ele>93</ele>
<time>2016-06-13T14:54:32Z</time>
</trkpt>
<trkpt lat="53.2999155" lon="18.4239595">
<ele>93</ele>
<time>2016-06-13T14:54:34Z</time>
</trkpt>
<trkpt lat="53.2999155" lon="18.4239595">
<ele>93</ele>
<time>2016-06-13T14:54:36Z</time>
</trkpt>
<trkpt lat="53.2999155" lon="18.4239595">
<ele>93</ele>
<time>2016-06-13T14:54:38Z</time>
</trkpt>
<trkpt lat="53.2999155" lon="18.4239595">
<ele>93</ele>
<time>2016-06-13T14:54:40Z</time>
</trkpt>
<trkpt lat="53.2999155" lon="18.4239595">
<ele>93</ele>
<time>2016-06-13T14:54:42Z</time>
</trkpt>
<trkpt lat="53.2999155" lon="18.4239595">
<ele>93</ele>
<time>2016-06-13T14:54:44Z</time>
</trkpt>
<trkpt lat="53.2999155" lon="18.4239595">
<ele>93</ele>
<time>2016-06-13T14:54:46Z</time>
</trkpt>
<trkpt lat="53.2999155" lon="18.4239595">
<ele>93</ele>
<time>2016-06-13T14:54:48Z</time>
</trkpt>
<trkpt lat="53.2999155" lon="18.4239595">
<ele>93</ele>
<time>2016-06-13T14:54:50Z</time>
</trkpt>
<trkpt lat="53.2999155" lon="18.4239595">
<ele>93</ele>
<time>2016-06-13T14:54:52Z</time>
</trkpt>
<trkpt lat="53.2999155" lon="18.4239595">
<ele>93</ele>
<time>2016-06-13T14:54:54Z</time>
</trkpt>
<trkpt lat="53.2999155" lon="18.4239595">
<ele>93</ele>
<time>2016-06-13T14:54:56Z</time>
</trkpt>
<trkpt lat="53.2999155" lon="18.4239595">
<ele>93</ele>
<time>2016-06-13T14:54:58Z</time>
</trkpt>
<trkpt lat="53.2999155" lon="18.4239595">
<ele>93</ele>
<time>2016-06-13T14:55:00Z</time>
</trkpt>
<trkpt lat="53.2999155" lon="18.4239595">
<ele>93</ele>
<time>2016-06-13T14:55:02Z</time>
</trkpt>
<trkpt lat="53.2999155" lon="18.4239595">
<ele>93</ele>
<time>2016-06-13T14:55:04Z</time>
</trkpt>
<trkpt lat="53.2999155" lon="18.4239595">
<ele>93</ele>
<time>2016-06-13T14:55:06Z</time>
</trkpt>
<trkpt lat="53.2999155" lon="18.4239595">
<ele>93</ele>
<time>2016-06-13T14:55:08Z</time>
</trkpt>
<trkpt lat="53.2999155" lon="18.4239595">
<ele>93</ele>
<time>2016-06-13T14:55:10Z</time>
</trkpt>
<trkpt lat="53.2999155" lon="18.4239595">
<ele>93</ele>
<time>2016-06-13T14:55:12Z</time>
</trkpt>
<trkpt lat="53.2999155" lon="18.4239595">
<ele>93</ele>
<time>2016-06-13T14:55:14Z</time>
</trkpt>
<trkpt lat="53.2999155" lon="18.4239595">
<ele>93</ele>
<time>2016-06-13T14:55:16Z</time>
</trkpt>
<trkpt lat="53.2999155" lon="18.4239595">
<ele>93</ele>
<time>2016-06-13T14:55:18Z</time>
</trkpt>
<trkpt lat="53.2999155" lon="18.4239595">
<ele>93</ele>
<time>2016-06-13T14:55:20Z</time>
</trkpt>
<trkpt lat="53.2999155" lon="18.4239595">
<ele>93</ele>
<time>2016-06-13T14:55:22Z</time>
</trkpt>
<trkpt lat="53.2999155" lon="18.4239595">
<ele>93</ele>
<time>2016-06-13T14:55:24Z</time>
</trkpt>
<trkpt lat="" lon="">
<ele></ele>
<time>2016-06-13TZ</time>
</trkpt>
</trkseg>
</trk>
<wpt lat="" lon="">
	<name></name>
	<desc></desc>
	<cmt></cmt>
	<photoid></photoid>
	<type></type>
</wpt>
</gpx>
